createdAt,value
2019-04-25T00:05:03.107Z,98908.99
2019-04-25T00:10:22.056Z,98902.67
2019-04-25T00:12:51.786Z,98901.00
2019-04-25T00:15:39.947Z,98907.80
2019-04-25T00:18:27.320Z,98907.80
2019-04-25T00:24:04.281Z,98881.95
2019-04-25T00:26:52.211Z,98895.25
2019-04-25T00:29:38.740Z,98899.53
2019-04-25T00:34:45.429Z,98903.53
2019-04-25T00:37:32.381Z,98883.84
2019-04-25T00:40:01.625Z,98883.84
2019-04-25T00:42:32.007Z,98890.92
2019-04-25T00:44:59.671Z,98893.41
2019-04-25T00:47:46.276Z,98888.68
2019-04-25T00:50:13.834Z,98888.68
2019-04-25T00:53:01.203Z,98883.30
2019-04-25T00:55:31.345Z,98883.30
2019-04-25T00:58:18.207Z,98879.72
2019-04-25T01:01:04.563Z,98879.72
2019-04-25T01:06:06.579Z,98876.19
2019-04-25T01:08:34.651Z,98872.02
2019-04-25T01:11:02.418Z,98891.94
2019-04-25T01:13:48.818Z,98892.87
2019-04-25T01:19:23.362Z,98895.30
2019-04-25T01:22:09.732Z,98889.47
2019-04-25T01:24:56.141Z,98896.03
2019-04-25T01:27:23.816Z,98897.53
2019-04-25T01:30:10.462Z,98892.48
2019-04-25T01:35:31.406Z,98904.11
2019-04-25T01:38:17.967Z,98911.63
2019-04-25T01:41:04.681Z,98917.56
2019-04-25T01:43:53.142Z,98917.56
2019-04-25T01:51:43.717Z,98945.27
2019-04-25T01:57:04.422Z,98964.72
2019-04-25T01:59:33.816Z,98964.72
2019-04-25T02:04:37.295Z,98964.83
2019-04-25T02:07:23.987Z,98960.29
2019-04-25T02:09:53.606Z,98960.70
2019-04-25T02:12:40.067Z,98963.70
2019-04-25T02:29:00.610Z,98952.30
2019-04-25T02:31:46.880Z,98952.30
2019-04-25T02:34:34.643Z,98952.09
2019-04-25T02:37:05.637Z,98948.45
2019-04-25T02:39:50.853Z,98947.11
2019-04-25T02:42:18.595Z,98947.11
2019-04-25T02:47:58.475Z,98938.94
2019-04-25T02:50:46.248Z,98936.52
2019-04-25T02:53:36.511Z,98929.46
2019-04-25T02:56:05.002Z,98929.46
2019-04-25T02:58:50.158Z,98913.78
2019-04-25T03:03:57.458Z,98920.33
2019-04-25T03:06:25.205Z,98931.53
2019-04-25T03:08:55.139Z,98931.39
2019-04-25T03:11:41.521Z,98948.77
2019-04-25T03:14:28.308Z,98945.19
2019-04-25T03:17:16.384Z,98945.39
2019-04-25T03:20:06.507Z,98953.38
2019-04-25T03:25:39.106Z,98959.92
2019-04-25T03:28:07.263Z,98959.92
2019-04-25T03:30:57.272Z,98959.95
2019-04-25T03:33:25.894Z,98959.95
2019-04-25T03:36:13.986Z,98950.95
2019-04-25T03:38:44.064Z,98950.95
2019-04-25T03:43:58.289Z,98953.14
2019-04-25T03:46:44.699Z,98951.81
2019-04-25T03:49:13.905Z,98959.66
2019-04-25T03:54:34.611Z,98972.48
2019-04-25T03:57:04.863Z,98972.48
2019-04-25T03:59:50.585Z,98973.23
2019-04-25T04:02:18.158Z,98975.15
2019-04-25T04:05:05.951Z,98983.27
2019-04-25T04:07:34.230Z,98983.27
2019-04-25T04:10:21.238Z,98996.26
2019-04-25T04:12:49.944Z,98996.26
2019-04-25T04:15:36.498Z,98999.23
2019-04-25T04:18:09.413Z,98997.20
2019-04-25T04:20:55.777Z,98997.20
2019-04-25T04:23:43.033Z,99010.86
2019-04-25T04:28:46.036Z,99010.52
2019-04-25T04:31:33.577Z,99002.84
2019-04-25T04:34:01.736Z,99002.84
2019-04-25T04:36:29.749Z,99007.52
2019-04-25T04:39:16.855Z,99013.19
2019-04-25T04:41:45.517Z,99007.06
2019-04-25T04:44:31.967Z,99005.11
2019-04-25T04:46:59.573Z,98995.66
2019-04-25T04:49:45.910Z,98995.66
2019-04-25T04:52:27.430Z,99000.05
2019-04-25T04:57:32.264Z,98996.72
2019-04-25T05:00:14.156Z,98989.45
2019-04-25T05:03:00.400Z,98989.45
2019-04-25T05:05:46.856Z,98988.66
2019-04-25T05:08:33.838Z,99006.80
2019-04-25T05:11:23.562Z,99006.80
2019-04-25T05:14:09.416Z,99006.97
2019-04-25T05:16:55.794Z,99006.97
2019-04-25T05:19:23.886Z,99005.42
2019-04-25T05:22:13.008Z,99005.81
2019-04-25T05:24:41.513Z,99005.81
2019-04-25T05:27:37.125Z,99005.23
2019-04-25T05:30:17.005Z,99006.32
2019-04-25T05:33:04.077Z,99011.15
2019-04-25T05:35:33.162Z,99012.03
2019-04-25T05:38:23.700Z,99012.03
2019-04-25T05:41:09.763Z,99011.61
2019-04-25T05:43:56.200Z,99011.61
2019-04-25T05:46:25.391Z,99015.97
2019-04-25T05:49:13.723Z,99008.66
2019-04-25T05:51:41.169Z,99013.66
2019-04-25T05:54:27.510Z,98998.62
2019-04-25T05:56:55.129Z,98998.62
2019-04-25T05:59:41.429Z,98985.98
2019-04-25T06:02:09.165Z,98985.98
2019-04-25T06:04:36.789Z,99003.89
2019-04-25T06:07:25.442Z,99003.04
2019-04-25T06:10:11.168Z,99003.04
2019-04-25T06:12:57.532Z,99009.42
2019-04-25T06:18:21.219Z,99010.06
2019-04-25T06:20:48.826Z,99010.06
2019-04-25T06:23:35.190Z,99010.24
2019-04-25T06:26:17.188Z,99008.55
2019-04-25T06:28:57.034Z,99027.13
2019-04-25T06:34:28.483Z,99034.00
2019-04-25T06:36:56.434Z,99027.84
2019-04-25T06:39:25.326Z,99031.55
2019-04-25T06:41:54.046Z,99031.86
2019-04-25T06:44:34.596Z,99029.52
2019-04-25T06:47:24.540Z,99029.52
2019-04-25T06:50:09.126Z,99037.70
2019-04-25T06:52:36.744Z,99038.48
2019-04-25T06:55:04.443Z,99038.48
2019-04-25T06:57:50.823Z,99034.61
2019-04-25T07:03:15.654Z,99041.15
2019-04-25T07:05:46.278Z,99045.52
2019-04-25T07:08:14.063Z,99044.51
2019-04-25T07:10:41.614Z,99028.09
2019-04-25T07:13:12.130Z,99028.09
2019-04-25T07:15:40.479Z,99045.64
2019-04-25T07:18:08.085Z,99045.64
2019-04-25T07:20:38.111Z,99054.27
2019-04-25T07:23:08.577Z,99052.64
2019-04-25T07:25:39.225Z,99064.34
2019-04-25T07:28:30.835Z,99054.73
2019-04-25T07:31:14.712Z,99054.05
2019-04-25T07:33:51.209Z,99047.48
2019-04-25T07:36:19.022Z,99047.48
2019-04-25T07:38:46.638Z,99059.03
2019-04-25T07:41:16.258Z,99051.41
2019-04-25T07:43:43.652Z,99051.41
2019-04-25T07:46:11.236Z,99051.56
2019-04-25T07:48:41.102Z,99057.36
2019-04-25T07:51:08.959Z,99068.33
2019-04-25T07:53:37.515Z,99064.41
2019-04-25T07:56:05.059Z,99064.41
2019-04-25T07:58:50.385Z,99042.23
2019-04-25T08:01:11.337Z,99075.15
2019-04-25T08:03:40.846Z,99075.15
2019-04-25T08:06:08.329Z,99074.66
2019-04-25T08:08:36.087Z,99079.56
2019-04-25T08:11:05.007Z,99064.09
2019-04-25T08:13:43.673Z,99066.17
2019-04-25T08:16:11.317Z,99066.17
2019-04-25T08:18:39.072Z,99069.24
2019-04-25T08:21:06.678Z,99065.90
2019-04-25T08:23:36.725Z,99058.25
2019-04-25T08:26:08.168Z,99066.23
2019-04-25T08:28:48.925Z,99072.58
2019-04-25T08:31:07.538Z,99072.58
2019-04-25T08:33:35.528Z,99075.70
2019-04-25T08:36:09.179Z,99084.72
2019-04-25T08:38:36.119Z,99098.83
2019-04-25T08:41:04.092Z,99093.94
2019-04-25T08:43:32.564Z,99090.53
2019-04-25T08:46:01.653Z,99090.53
2019-04-25T08:48:34.500Z,99087.73
2019-04-25T08:51:04.439Z,99094.26
2019-04-25T08:53:38.946Z,99097.41
2019-04-25T08:56:28.541Z,99097.41
2019-04-25T08:59:18.321Z,99090.88
2019-04-25T09:01:55.732Z,99090.88
2019-04-25T09:04:44.523Z,99082.62
2019-04-25T09:07:13.471Z,99082.62
2019-04-25T09:09:45.178Z,99093.51
2019-04-25T09:12:14.051Z,99093.51
2019-04-25T09:14:41.593Z,99106.77
2019-04-25T09:17:09.482Z,99104.30
2019-04-25T09:19:38.166Z,99103.55
2019-04-25T09:22:05.960Z,99109.46
2019-04-25T09:24:36.726Z,99109.46
2019-04-25T09:27:03.715Z,99119.03
2019-04-25T09:29:31.236Z,99113.17
2019-04-25T09:32:03.663Z,99113.17
2019-04-25T09:34:31.335Z,99105.81
2019-04-25T09:36:58.964Z,99105.81
2019-04-25T09:39:41.049Z,99101.24
2019-04-25T09:42:08.738Z,99104.19
2019-04-25T09:44:46.668Z,99093.13
2019-04-25T09:47:14.234Z,99106.81
2019-04-25T09:49:43.838Z,99098.73
2019-04-25T09:52:17.876Z,99110.70
2019-04-25T09:54:50.688Z,99104.15
2019-04-25T09:57:37.488Z,99114.92
2019-04-25T10:00:13.187Z,99115.56
2019-04-25T10:02:55.520Z,99111.66
2019-04-25T10:05:23.922Z,99108.53
2019-04-25T10:07:53.226Z,99097.56
2019-04-25T10:10:21.174Z,99097.56
2019-04-25T10:12:48.739Z,99103.75
2019-04-25T10:15:16.433Z,99091.22
2019-04-25T10:17:53.411Z,99082.70
2019-04-25T10:20:29.458Z,99090.43
2019-04-25T10:22:53.997Z,99083.23
2019-04-25T10:25:23.373Z,99083.23
2019-04-25T10:27:53.773Z,99085.80
2019-04-25T10:30:23.495Z,99095.69
2019-04-25T10:32:51.176Z,99085.13
2019-04-25T10:35:21.632Z,99095.52
2019-04-25T10:37:53.791Z,99087.98
2019-04-25T10:40:23.404Z,99079.36
2019-04-25T10:42:53.356Z,99073.08
2019-04-25T10:45:24.273Z,99073.08
2019-04-25T10:47:54.633Z,99074.01
2019-04-25T10:50:24.169Z,99054.95
2019-04-25T10:52:52.742Z,99070.80
2019-04-25T10:55:23.289Z,99067.87
2019-04-25T10:57:51.121Z,99070.38
2019-04-25T11:00:21.132Z,99069.64
2019-04-25T11:03:03.929Z,99069.64
2019-04-25T11:05:31.581Z,99069.53
2019-04-25T11:07:59.401Z,99060.99
2019-04-25T11:10:27.167Z,99060.99
2019-04-25T11:12:55.209Z,99055.27
2019-04-25T11:15:24.507Z,99046.47
2019-04-25T11:17:54.131Z,99033.75
2019-04-25T11:20:21.443Z,99033.75
2019-04-25T11:22:51.674Z,99029.55
2019-04-25T11:25:19.554Z,99037.06
2019-04-25T11:27:49.575Z,99028.00
2019-04-25T11:30:17.348Z,99028.00
2019-04-25T11:32:45.882Z,99038.48
2019-04-25T11:35:15.813Z,99045.03
2019-04-25T11:37:43.839Z,99046.23
2019-04-25T11:40:18.168Z,99046.23
2019-04-25T11:42:48.985Z,99048.23
2019-04-25T11:45:19.162Z,99050.70
2019-04-25T11:47:48.789Z,99050.70
2019-04-25T11:50:16.656Z,99051.77
2019-04-25T11:52:44.210Z,99051.77
2019-04-25T11:55:11.949Z,99024.95
2019-04-25T11:57:39.799Z,99024.95
2019-04-25T12:00:07.469Z,99026.08
2019-04-25T12:02:35.039Z,99026.08
2019-04-25T12:05:02.942Z,99028.62
2019-04-25T12:07:32.288Z,99030.78
2019-04-25T12:09:59.879Z,99012.47
2019-04-25T12:12:27.796Z,99014.02
2019-04-25T12:14:56.494Z,99021.70
2019-04-25T12:17:27.285Z,99015.39
2019-04-25T12:19:56.193Z,99012.58
2019-04-25T12:22:23.923Z,98997.05
2019-04-25T12:24:52.273Z,98997.57
2019-04-25T12:27:20.589Z,98997.57
2019-04-25T12:29:50.089Z,98991.41
2019-04-25T12:32:17.339Z,98985.72
2019-04-25T12:34:45.779Z,98985.72
2019-04-25T12:37:13.370Z,98985.59
2019-04-25T12:39:58.187Z,98974.26
2019-04-25T12:42:26.121Z,98970.05
2019-04-25T12:45:06.166Z,98966.52
2019-04-25T12:47:35.641Z,98966.52
2019-04-25T12:50:06.665Z,98959.55
2019-04-25T12:52:34.265Z,98960.90
2019-04-25T12:55:03.955Z,98956.67
2019-04-25T12:57:31.433Z,98967.65
2019-04-25T12:59:59.243Z,98961.28
2019-04-25T13:02:27.231Z,98967.19
2019-04-25T13:04:57.145Z,98965.15
2019-04-25T13:07:24.761Z,98964.78
2019-04-25T13:09:53.599Z,98975.45
2019-04-25T13:12:23.360Z,98969.73
2019-04-25T13:14:51.050Z,98971.87
2019-04-25T13:17:24.100Z,98971.87
2019-04-25T13:19:54.409Z,98967.53
2019-04-25T13:22:25.104Z,98960.66
2019-04-25T13:24:52.636Z,98962.38
2019-04-25T13:27:33.667Z,98962.14
2019-04-25T13:30:20.340Z,98964.28
2019-04-25T13:33:02.156Z,98951.83
2019-04-25T13:35:36.805Z,98947.80
2019-04-25T13:38:05.705Z,98949.45
2019-04-25T13:40:33.231Z,98937.34
2019-04-25T13:43:04.554Z,98947.03
2019-04-25T13:45:30.352Z,98947.03
2019-04-25T13:47:58.145Z,98936.53
2019-04-25T13:50:26.134Z,98936.53
2019-04-25T13:52:58.267Z,98933.85
2019-04-25T13:55:34.897Z,98929.75
2019-04-25T13:58:06.283Z,98924.62
2019-04-25T14:00:34.972Z,98915.44
2019-04-25T14:03:02.539Z,98915.72
2019-04-25T14:05:36.127Z,98915.72
2019-04-25T14:08:03.743Z,98911.63
2019-04-25T14:10:32.362Z,98911.63
2019-04-25T14:13:00.634Z,98906.62
2019-04-25T14:15:29.656Z,98906.60
2019-04-25T14:18:22.898Z,98902.61
2019-04-25T14:20:55.182Z,98902.03
2019-04-25T14:23:24.434Z,98900.45
2019-04-25T14:25:52.352Z,98891.40
2019-04-25T14:28:20.898Z,98891.40
2019-04-25T14:30:50.448Z,98890.34
2019-04-25T14:33:18.295Z,98889.03
2019-04-25T14:35:47.985Z,98881.40
2019-04-25T14:38:15.495Z,98881.40
2019-04-25T14:40:43.423Z,98878.31
2019-04-25T14:43:15.189Z,98868.05
2019-04-25T14:45:47.814Z,98878.10
2019-04-25T14:48:15.701Z,98878.10
2019-04-25T14:50:43.283Z,98869.94
2019-04-25T14:53:15.027Z,98873.44
2019-04-25T14:55:51.112Z,98874.36
2019-04-25T14:58:24.007Z,98860.04
2019-04-25T15:00:54.960Z,98860.04
2019-04-25T15:03:23.093Z,98860.59
2019-04-25T15:05:51.530Z,98860.59
2019-04-25T15:08:22.178Z,98855.67
2019-04-25T15:10:51.529Z,98855.13
2019-04-25T15:13:21.858Z,98862.37
2019-04-25T15:15:49.474Z,98862.37
2019-04-25T15:18:17.101Z,98860.82
2019-04-25T15:20:47.671Z,98860.78
2019-04-25T15:23:15.360Z,98866.09
2019-04-25T15:25:59.079Z,98856.80
2019-04-25T15:28:28.068Z,98866.59
2019-04-25T15:30:55.688Z,98856.05
2019-04-25T15:33:26.173Z,98855.08
2019-04-25T15:36:01.501Z,98867.46
2019-04-25T15:38:54.023Z,98863.20
2019-04-25T15:41:40.759Z,98863.20
2019-04-25T15:44:21.184Z,98868.30
2019-04-25T15:46:51.107Z,98868.12
2019-04-25T15:49:18.670Z,98873.40
2019-04-25T15:51:50.396Z,98867.19
2019-04-25T15:54:18.316Z,98862.78
2019-04-25T15:56:49.374Z,98862.78
2019-04-25T15:59:16.919Z,98857.45
2019-04-25T16:01:51.848Z,98847.49
2019-04-25T16:04:19.389Z,98848.23
2019-04-25T16:06:47.144Z,98848.23
2019-04-25T16:09:16.796Z,98850.52
2019-04-25T16:11:45.323Z,98848.88
2019-04-25T16:14:14.744Z,98851.12
2019-04-25T16:16:42.254Z,98853.43
2019-04-25T16:19:10.142Z,98843.71
2019-04-25T16:21:38.020Z,98834.70
2019-04-25T16:24:05.932Z,98839.78
2019-04-25T16:26:33.661Z,98839.78
2019-04-25T16:29:21.133Z,98835.33
2019-04-25T16:31:48.821Z,98839.18
2019-04-25T16:34:16.823Z,98839.18
2019-04-25T16:36:50.554Z,98842.53
2019-04-25T16:39:21.908Z,98854.48
2019-04-25T16:41:54.228Z,98852.34
2019-04-25T16:44:22.812Z,98854.18
2019-04-25T16:46:51.655Z,98855.95
2019-04-25T16:49:19.398Z,98855.95
2019-04-25T16:51:46.921Z,98858.91
2019-04-25T16:54:17.467Z,98861.00
2019-04-25T16:56:45.458Z,98861.48
2019-04-25T16:59:18.218Z,98857.30
2019-04-25T17:01:45.991Z,98855.81
2019-04-25T17:04:13.858Z,98849.67
2019-04-25T17:06:41.347Z,98845.92
2019-04-25T17:09:08.963Z,98845.92
2019-04-25T17:11:36.789Z,98840.50
2019-04-25T17:14:20.510Z,98840.50
2019-04-25T17:17:05.750Z,98843.48
2019-04-25T17:20:05.459Z,98843.48
2019-04-25T17:22:37.100Z,98845.34
2019-04-25T17:25:04.588Z,98856.19
2019-04-25T17:27:33.068Z,98865.37
2019-04-25T17:30:01.020Z,98865.37
2019-04-25T17:32:53.981Z,98872.98
2019-04-25T17:35:41.934Z,98875.91
2019-04-25T17:38:19.469Z,98873.31
2019-04-25T17:40:46.389Z,98880.83
2019-04-25T17:43:15.763Z,98878.27
2019-04-25T17:45:45.003Z,98878.27
2019-04-25T17:48:12.828Z,98881.09
2019-04-25T17:50:42.074Z,98889.06
2019-04-25T17:53:13.531Z,98889.06
2019-04-25T17:55:44.450Z,98900.89
2019-04-25T17:58:12.319Z,98900.89
2019-04-25T18:00:43.586Z,98918.74
2019-04-25T18:03:12.459Z,98916.04
2019-04-25T18:06:08.194Z,98916.04
2019-04-25T18:08:37.780Z,98920.23
2019-04-25T18:11:08.712Z,98927.03
2019-04-25T18:13:38.837Z,98929.43
2019-04-25T18:16:27.012Z,98929.43
2019-04-25T18:19:06.101Z,98938.38
2019-04-25T18:21:52.467Z,98935.41
2019-04-25T18:24:39.123Z,98948.31
2019-04-25T18:27:29.419Z,98948.31
2019-04-25T18:29:57.183Z,98947.48
2019-04-25T18:35:31.814Z,98985.67
2019-04-25T18:38:18.165Z,98985.67
2019-04-25T18:41:04.733Z,98992.34
2019-04-25T18:43:51.087Z,99005.09
2019-04-25T18:46:38.275Z,99005.09
2019-04-25T18:49:25.538Z,99015.30
2019-04-25T18:54:47.334Z,99025.06
2019-04-25T19:00:39.185Z,99029.56
2019-04-25T19:03:39.645Z,99040.17
2019-04-25T19:09:01.745Z,99060.13
2019-04-25T19:11:48.072Z,99071.86
2019-04-25T19:17:24.126Z,99088.73
2019-04-25T19:23:09.427Z,99097.51
2019-04-25T19:25:26.210Z,99099.78
2019-04-25T19:28:12.618Z,99107.80
2019-04-25T19:30:41.091Z,99117.97
2019-04-25T19:33:08.882Z,99116.55
2019-04-25T19:35:39.370Z,99134.76
2019-04-25T19:38:26.330Z,99136.05
2019-04-25T19:41:12.695Z,99137.17
2019-04-25T19:43:59.062Z,99137.17
2019-04-25T19:52:31.423Z,99147.13
2019-04-25T19:55:29.828Z,99162.02
2019-04-25T19:57:48.184Z,99167.27
2019-04-25T20:00:36.984Z,99178.79
2019-04-25T20:03:52.243Z,99178.79
2019-04-25T20:06:19.087Z,99180.91
2019-04-25T20:09:17.750Z,99180.91
2019-04-25T20:11:53.658Z,99182.95
2019-04-25T20:14:43.944Z,99195.77
2019-04-25T20:17:30.549Z,99202.05
2019-04-25T20:19:58.227Z,99207.98
2019-04-25T20:22:44.901Z,99201.19
2019-04-25T20:25:32.742Z,99196.48
2019-04-25T20:28:19.166Z,99188.47
2019-04-25T20:33:38.751Z,99187.30
2019-04-25T20:36:25.189Z,99190.72
2019-04-25T20:39:13.993Z,99184.20
2019-04-25T20:41:43.640Z,99184.20
2019-04-25T20:44:30.051Z,99193.31
2019-04-25T20:46:57.887Z,99193.31
2019-04-25T20:49:48.724Z,99196.91
2019-04-25T20:55:40.949Z,99201.79
2019-04-25T20:58:08.828Z,99198.98
2019-04-25T21:03:41.644Z,99194.34
2019-04-25T21:09:33.213Z,99202.19
2019-04-25T21:12:23.171Z,99202.19
2019-04-25T21:15:09.669Z,99212.77
2019-04-25T21:17:56.364Z,99227.19
2019-04-25T21:23:29.204Z,99229.53
2019-04-25T21:28:43.445Z,99210.09
2019-04-25T21:31:31.465Z,99222.30
2019-04-25T21:36:34.140Z,99216.78
2019-04-25T21:42:10.234Z,99223.64
2019-04-25T21:47:44.946Z,99222.47
2019-04-25T21:53:04.910Z,99226.47
2019-04-25T21:55:51.494Z,99226.60
2019-04-25T21:58:39.568Z,99226.60
2019-04-25T22:01:25.933Z,99234.98
2019-04-25T22:06:28.233Z,99225.90
2019-04-25T22:09:14.577Z,99218.70
2019-04-25T22:12:01.246Z,99218.70
2019-04-25T22:14:28.810Z,99220.00
2019-04-25T22:16:58.896Z,99234.73
2019-04-25T22:19:28.033Z,99240.19
2019-04-25T22:22:16.118Z,99243.68
2019-04-25T22:24:46.315Z,99243.68
2019-04-25T22:27:32.842Z,99260.05
2019-04-25T22:30:01.403Z,99264.73
2019-04-25T22:32:48.698Z,99269.41
2019-04-25T22:35:35.072Z,99268.22
2019-04-25T22:38:21.676Z,99263.69
2019-04-25T22:46:26.049Z,99249.22
2019-04-25T22:49:07.626Z,99255.20
2019-04-25T22:51:54.567Z,99268.82
2019-04-25T22:54:40.988Z,99268.82
2019-04-25T23:00:14.342Z,99259.41
2019-04-25T23:05:55.341Z,99257.39
2019-04-25T23:11:30.314Z,99258.35
2019-04-25T23:13:59.633Z,99258.35
2019-04-25T23:16:28.960Z,99266.02
2019-04-25T23:19:15.339Z,99276.66
2019-04-25T23:22:14.204Z,99276.66
2019-04-25T23:27:39.741Z,99277.59
2019-04-25T23:32:55.553Z,99259.22
2019-04-25T23:35:32.252Z,99262.57
2019-04-25T23:37:52.527Z,99262.57
2019-04-25T23:40:20.277Z,99252.88
2019-04-25T23:43:07.544Z,99253.21
2019-04-25T23:45:36.281Z,99246.67
2019-04-25T23:48:04.053Z,99246.67
2019-04-25T23:50:53.619Z,99232.95
2019-04-25T23:53:40.117Z,99231.62
2019-04-25T23:56:07.811Z,99232.10
2019-04-25T23:58:37.493Z,99215.72
